Aérodrome :
LOGIN :

S'inscrire | Disclaimer

   EN    FR    IT 

 










Légende :    VFR   VFR Marginal   IFR   IFR Intensif   IFR Très Intensif
Visi : 
Plafond : 
>= 8 km
>= 3000ft
5 à 8 km
1000 à 3000 ft
1500m à 5 km
500 à 1000 ft
800 à 1500m
200 à 500 ft
< 800m
< 200 ft
Symboles :   Orages  Brouillard  Fortes neiges  Fortes précipitations  Vent > 20 kt
SIGMETs :   Divers  Orages  Givrage  Turbulence  Onde Orograph.  Cendres Volcan.







- Altitude de l'aérodrome : 83 ft
- Code IATA : LHR
- Voir les cartes d'approche


EGLL - London Heathrow

DERNIER METAR :
  • 191320Z AUTO 27005KT 210V310 9999 NCD 08/01 Q1024 NOSIG

METARs EXPIRÉS :
  • 191250Z AUTO 29004KT 240V010 9999 NCD 08/01 Q1024 NOSIG
  • 191220Z AUTO 31004KT 260V350 9999 NCD 07/01 Q1024
  • 191150Z AUTO 30005KT 280V360 9999 NCD 07/02 Q1024 NOSIG
  • 191120Z AUTO 29005KT 9999 NCD 06/02 Q1024 NOSIG
  • 191050Z AUTO 29003KT 9999 NCD 05/01 Q1024 NOSIG

TAF TAF EGLL
Valide du 19 à 12h jusqu'au 20 à 18h UTC


191054Z 1912/2018 30005KT 9999 FEW040
PROB30
TEMPO 2002/2018 8000 -RA
BECMG 2006/2009 24012KT BKN014
TEMPO 2009/2016 25015G25KT BKN018
Pas de NOTAMs connus pour ce terrain.



MET'MAP, la Météo Aéronautique d'un coup d'oeil ! - Copyright ORBIFLY Décembre 2007 - Disclaimer

ORBIFLY MET'MAP TEAM :

Programmation & Développement : Alexandra Zaïnal
Conception & Développement : Baudouin d'Aumeries
Co-Programmation & Développement : Marc-Olivier Méhu
Soutien technique & logistique : Manuel Goepfert

Contact : metmap@orbifly.com




SOURCES & CREDITS :

   NOAA